M/T Pazar — TCMC — position and weather

sailwx.info

Track history (hours):
 
Tides and Currents Weather Stations Pressure Air Temp Water Temp Dewpoint Dewpoint Depression Visibility Wind Speed Wind Dir Waves Ship Positions

M/T Pazar

Last reported at 2014-Oct-01 08:06 UTC. Time now 2014-Oct-01 18:27 UTC.
Position N 40°58' E 028°53'.

Length 85 m; draft 3.5 m.

Type: Ship (hazmat cat B). MMSI: 271000251.

Date/timePositionNaut miles runAvg speedWind from/ knotsBaromVisibWave heightAir tempDewpointWater temp
2014-Oct-01 08:06N 40°58' E 028°53'3 5.0
2014-Oct-01 07:33N 40°56' E 028°56'7 7.5
2014-Oct-01 06:33N 40°51' E 029°04'4 4.3
2014-Oct-01 05:32N 40°50' E 029°09'5 5.2
2014-Oct-01 04:32N 40°51' E 029°16'1 0.8
2014-Oct-01 03:29N 40°50' E 029°16'0 0.0
2014-Oct-01 02:29N 40°50' E 029°16'0 0.0
2014-Oct-01 01:23N 40°50' E 029°16'0 0.0
2014-Oct-01 00:29N 40°50' E 029°16'0 0.0
2014-Sep-30 23:23N 40°50' E 029°16'0 0.0
2014-Sep-30 22:29N 40°50' E 029°16'0 0.0
2014-Sep-30 21:29N 40°50' E 029°16'0 0.0
2014-Sep-30 20:29N 40°50' E 029°16'0 0.0
2014-Sep-30 19:29N 40°50' E 029°16'0 0.0
2014-Sep-30 18:29N 40°50' E 029°16'0 0.0
2014-Sep-30 17:29N 40°50' E 029°16'0 0.0
2014-Sep-30 16:29N 40°50' E 029°16'0 0.0
2014-Sep-30 15:29N 40°50' E 029°16'0 0.0
2014-Sep-30 14:29N 40°50' E 029°16'0 0.0
2014-Sep-30 13:29N 40°50' E 029°16'0 0.0
2014-Sep-30 12:29N 40°50' E 029°16'0 0.0
2014-Sep-30 11:17N 40°50' E 029°16'0 0.0
2014-Sep-30 10:23N 40°50' E 029°16'0 0.0
2014-Sep-30 09:29N 40°50' E 029°16'0 0.0
2014-Sep-30 08:29N 40°50' E 029°16'0 0.0
2014-Sep-30 07:23N 40°50' E 029°16'0 0.0
2014-Sep-30 06:29N 40°50' E 029°16'0 0.0
2014-Sep-30 05:29N 40°50' E 029°16'0 0.0
2014-Sep-30 04:23N 40°50' E 029°16'0 0.0
2014-Sep-30 03:23N 40°50' E 029°16'0 0.0
2014-Sep-30 02:23N 40°50' E 029°16'0 0.0
2014-Sep-30 01:29N 40°50' E 029°16'0 0.0
2014-Sep-30 00:29N 40°50' E 029°16'0 0.0
2014-Sep-29 23:29N 40°50' E 029°16'0 0.0
2014-Sep-29 22:29N 40°50' E 029°16'0 0.0
2014-Sep-29 21:23N 40°50' E 029°16'0 0.0
2014-Sep-29 20:29N 40°50' E 029°16'0 0.0
2014-Sep-29 19:29N 40°50' E 029°16'0 0.0
2014-Sep-29 18:29N 40°50' E 029°16'0 0.0
2014-Sep-29 17:29N 40°50' E 029°16'0 0.0
2014-Sep-29 16:29N 40°50' E 029°16'0 0.0
2014-Sep-29 15:29N 40°50' E 029°16'0 0.0
2014-Sep-29 14:29N 40°50' E 029°16'0 0.0
2014-Sep-29 13:29N 40°50' E 029°16'0 0.0
2014-Sep-29 12:23N 40°50' E 029°16'0 0.0
2014-Sep-29 11:29N 40°50' E 029°16'0 0.0
2014-Sep-29 10:11N 40°50' E 029°16'0 0.0
2014-Sep-29 09:25N 40°50' E 029°16'0 0.0
2014-Sep-29 08:31N 40°50' E 029°16'0 0.0
2014-Sep-29 07:31N 40°50' E 029°16'0 0.0
2014-Sep-29 06:31N 40°50' E 029°16'0 0.0
2014-Sep-29 05:28N 40°50' E 029°16'0 0.0
2014-Sep-29 04:16N 40°50' E 029°16'0 0.0
2014-Sep-29 03:19N 40°50' E 029°16'0 0.0
2014-Sep-29 02:13N 40°50' E 029°16'0 0.0
2014-Sep-29 01:31N 40°50' E 029°16'0 0.0
2014-Sep-29 00:31N 40°50' E 029°16'0 0.0
2014-Sep-28 23:13N 40°50' E 029°16'0 0.0
2014-Sep-28 22:19N 40°50' E 029°16'0 0.0
2014-Sep-28 21:31N 40°50' E 029°16'0 0.0
2014-Sep-28 20:31N 40°50' E 029°16'0 0.0
2014-Sep-28 19:31N 40°50' E 029°16'0 0.0
2014-Sep-28 18:07N 40°50' E 029°16'0 0.0
2014-Sep-28 17:25N 40°50' E 029°16'0 0.0
2014-Sep-28 16:31N 40°50' E 029°16'0 0.0
2014-Sep-28 15:25N 40°50' E 029°16'0 0.0
2014-Sep-28 14:31N 40°50' E 029°16'0 0.0
2014-Sep-28 13:31N 40°50' E 029°16'0 0.0
2014-Sep-28 12:28N 40°50' E 029°16'0 0.0
2014-Sep-28 11:10N 40°50' E 029°16'0 0.0
2014-Sep-28 10:28N 40°50' E 029°16'0 0.0
2014-Sep-28 09:28N 40°50' E 029°16'0 0.0
2014-Sep-27 11:22N 40°50' E 029°16'0 0.0
2014-Sep-27 10:28N 40°50' E 029°16'0 0.0
2014-Sep-27 09:22N 40°50' E 029°16'0 0.0
2014-Sep-27 08:28N 40°50' E 029°16'0 0.0
2014-Sep-27 07:16N 40°50' E 029°16'0 0.0
2014-Sep-27 06:22N 40°50' E 029°16'0 0.0
2014-Sep-27 05:16N 40°50' E 029°16'0 0.0
2014-Sep-27 04:22N 40°50' E 029°16'0 0.0
2014-Sep-27 03:28N 40°50' E 029°16'0 0.0
2014-Sep-27 02:28N 40°50' E 029°16'0 0.0
2014-Sep-27 01:28N 40°50' E 029°16'0 0.0
2014-Sep-27 00:16N 40°50' E 029°16'0 0.0
2014-Sep-26 23:28N 40°50' E 029°16'0 0.0
2014-Sep-26 22:22N 40°50' E 029°16'0 0.0
2014-Sep-26 21:28N 40°50' E 029°16'0 0.0
2014-Sep-26 20:28N 40°50' E 029°16'0 0.0
2014-Sep-26 19:28N 40°50' E 029°16'0 0.0
2014-Sep-26 17:28N 40°50' E 029°16'0 0.0
2014-Sep-26 16:16N 40°50' E 029°16'0 0.0
2014-Sep-26 15:28N 40°50' E 029°16'0 0.0
2014-Sep-26 14:28N 40°50' E 029°16'0 0.0
2014-Sep-26 13:28N 40°50' E 029°16'0 0.0
2014-Sep-26 12:28N 40°50' E 029°16'0 0.0
2014-Sep-26 11:22N 40°50' E 029°16'0 0.0
2014-Sep-26 10:28N 40°50' E 029°16'0 0.0
2014-Sep-26 09:22N 40°50' E 029°16'0 0.0
2014-Sep-26 08:22N 40°50' E 029°16'0 0.0
2014-Sep-26 07:16N 40°50' E 029°16'0 0.0
2014-Sep-26 06:28N 40°50' E 029°16'0 0.0
2014-Sep-26 05:22N 40°50' E 029°16'0 0.0
2014-Sep-26 04:28N 40°50' E 029°16'0 0.0
2014-Sep-26 03:22N 40°50' E 029°16'0 0.0
2014-Sep-26 02:28N 40°50' E 029°16'0 0.0
2014-Sep-26 01:28N 40°50' E 029°16'0 0.0
2014-Sep-26 00:28N 40°50' E 029°16'0 0.0
2014-Sep-25 23:22N 40°50' E 029°16'0 0.0
2014-Sep-25 22:28N 40°50' E 029°16'0 0.0
2014-Sep-25 21:28N 40°50' E 029°16'0 0.0
2014-Sep-25 20:28N 40°50' E 029°16'0 0.0
2014-Sep-25 19:16N 40°50' E 029°16'0 0.0
2014-Sep-25 18:28N 40°50' E 029°16'0 0.0
2014-Sep-25 17:28N 40°50' E 029°16'0 0.0
2014-Sep-25 16:28N 40°50' E 029°16'0 0.0
2014-Sep-25 15:28N 40°50' E 029°16'0 0.0
2014-Sep-25 13:28N 40°50' E 029°16'0 0.0
2014-Sep-25 12:28N 40°50' E 029°16'0 0.0
2014-Sep-25 11:22N 40°50' E 029°16'0 0.0
2014-Sep-25 10:16N 40°50' E 029°16'0 0.0
2014-Sep-25 09:28N 40°50' E 029°16'0 0.0
2014-Sep-25 08:28N 40°50' E 029°16'0 0.0
2014-Sep-25 07:28N 40°50' E 029°16'0 0.0
2014-Sep-25 05:16N 40°50' E 029°16'0 0.0
2014-Sep-25 04:28N 40°50' E 029°16'0 0.0
2014-Sep-25 03:28N 40°50' E 029°16'0 0.0
2014-Sep-25 02:16N 40°50' E 029°16'0 0.0
2014-Sep-25 01:22N 40°50' E 029°16'0 0.0
2014-Sep-25 00:28N 40°50' E 029°16'0 0.0
2014-Sep-24 23:28N 40°50' E 029°16'0 0.0
2014-Sep-24 22:22N 40°50' E 029°16'0 0.0
2014-Sep-24 21:22N 40°50' E 029°16'0 0.0
2014-Sep-24 20:22N 40°50' E 029°16'0 0.0
2014-Sep-24 18:31N 40°50' E 029°16'0 0.0
2014-Sep-24 17:25N 40°50' E 029°16'0 0.0
2014-Sep-24 16:31N 40°50' E 029°16'0 0.0
2014-Sep-24 15:31N 40°50' E 029°16'0 0.0
2014-Sep-24 14:31N 40°50' E 029°16'0 0.0
2014-Sep-24 13:13N 40°50' E 029°16'0 0.0
2014-Sep-24 12:31N 40°50' E 029°16'0 0.0
2014-Sep-24 11:31N 40°50' E 029°16'0 0.0
2014-Sep-24 10:31N 40°50' E 029°16'0 0.0
2014-Sep-24 09:31N 40°50' E 029°16'0 0.0
2014-Sep-24 08:31N 40°50' E 029°16'0 0.0
2014-Sep-24 07:31N 40°50' E 029°16'0 0.0
2014-Sep-24 06:31N 40°50' E 029°16'0 0.0
2014-Sep-24 05:31N 40°50' E 029°16'0 0.0
2014-Sep-24 04:31N 40°50' E 029°16'0 0.0
2014-Sep-24 03:31N 40°50' E 029°16'0 0.0
2014-Sep-24 02:31N 40°50' E 029°16'0 0.0
2014-Sep-24 01:31N 40°50' E 029°16'0 0.0
2014-Sep-24 00:31N 40°50' E 029°16'0 0.0
2014-Sep-23 23:31N 40°50' E 029°16'0 0.0
2014-Sep-23 22:31N 40°50' E 029°16'0 0.0
2014-Sep-23 20:19N 40°50' E 029°16'0 0.0
2014-Sep-23 19:31N 40°50' E 029°16'0 0.0
2014-Sep-23 18:31N 40°50' E 029°16'0 0.0
2014-Sep-23 17:25N 40°50' E 029°16'0 0.0
2014-Sep-23 16:13N 40°50' E 029°16'0 0.0
2014-Sep-23 15:31N 40°50' E 029°16'0 0.0
2014-Sep-23 14:13N 40°50' E 029°16'0 0.0
2014-Sep-23 13:19N 40°50' E 029°16'0 0.0
2014-Sep-23 12:31N 40°50' E 029°16'0 0.0
2014-Sep-23 11:31N 40°50' E 029°16'0 0.0
2014-Sep-23 10:31N 40°50' E 029°16'0 0.0
2014-Sep-23 09:19N 40°50' E 029°16'0 0.0
2014-Sep-23 08:31N 40°50' E 029°16'0 0.0
2014-Sep-23 07:25N 40°50' E 029°16'0 0.0
2014-Sep-23 06:25N 40°50' E 029°16'0 0.0
2014-Sep-23 05:31N 40°50' E 029°16'0 0.0
2014-Sep-23 04:31N 40°50' E 029°16'0 0.0
2014-Sep-23 03:31N 40°50' E 029°16'0 0.0
2014-Sep-23 02:31N 40°50' E 029°16'0 0.0
2014-Sep-23 01:31N 40°50' E 029°16'0 0.0
2014-Sep-23 00:31N 40°50' E 029°16'0 0.0
2014-Sep-22 23:31N 40°50' E 029°16'0 0.0
2014-Sep-22 22:25N 40°50' E 029°16'0 0.0
2014-Sep-22 21:31N 40°50' E 029°16'0 0.0
2014-Sep-22 20:31N 40°50' E 029°16'0 0.0
2014-Sep-22 19:31N 40°50' E 029°16'0 0.0
2014-Sep-22 18:31N 40°50' E 029°16'0 0.0
2014-Sep-22 17:31N 40°50' E 029°16'0 0.0
2014-Sep-22 16:25N 40°50' E 029°16'0 0.0
2014-Sep-22 15:31N 40°50' E 029°16'0 0.0
2014-Sep-22 14:13N 40°50' E 029°16'0 0.0
2014-Sep-22 13:31N 40°50' E 029°16'0 0.0
2014-Sep-22 12:31N 40°50' E 029°16'0 0.0
2014-Sep-22 11:31N 40°50' E 029°16'0 0.0
2014-Sep-22 10:25N 40°50' E 029°16'0 0.0
2014-Sep-22 09:13N 40°50' E 029°16'0 0.0
2014-Sep-22 08:31N 40°50' E 029°16'0 0.0
2014-Sep-22 07:31N 40°50' E 029°16'0 0.0
2014-Sep-22 06:31N 40°50' E 029°16'0 0.0
2014-Sep-22 05:31N 40°50' E 029°16'0 0.0
2014-Sep-22 04:25N 40°50' E 029°16'0 0.0
2014-Sep-22 03:31N 40°50' E 029°16'0 0.0
2014-Sep-22 02:31N 40°50' E 029°16'0 0.0
2014-Sep-22 01:31N 40°50' E 029°16'0 0.0
2014-Sep-22 00:07N 40°50' E 029°16'0 0.0
2014-Sep-21 23:31N 40°50' E 029°16'0 0.0
2014-Sep-21 22:19N 40°50' E 029°16'0 0.0
2014-Sep-21 21:31N 40°50' E 029°16'0 0.0
2014-Sep-21 20:25N 40°50' E 029°16'0 0.0
2014-Sep-21 19:25N 40°50' E 029°16'0 0.0
2014-Sep-21 18:31N 40°50' E 029°16'0 0.0
2014-Sep-21 17:31N 40°50' E 029°16'0 0.0
2014-Sep-21 16:31N 40°50' E 029°16'0 0.0
2014-Sep-21 15:31N 40°50' E 029°16'0 0.0
2014-Sep-21 14:31N 40°50' E 029°16'0 0.0
2014-Sep-21 13:31N 40°50' E 029°16'0 0.0
2014-Sep-21 12:25N 40°50' E 029°16'0 0.0
2014-Sep-21 11:31N 40°50' E 029°16'0 0.0
2014-Sep-21 10:31N 40°50' E 029°16'0 0.0
2014-Sep-21 09:19N 40°50' E 029°16'0 0.0
2014-Sep-21 08:31N 40°50' E 029°16'  
Track history (hours):
 
Tides and Currents Weather Stations Pressure Air Temp Water Temp Dewpoint Dewpoint Depression Visibility Wind Speed Wind Dir Waves Ship Positions

M/T Pazar

Last reported at 2014-Oct-01 08:06 UTC. Time now 2014-Oct-01 18:27 UTC.
Position N 40°58' E 028°53'.

Length 85 m; draft 3.5 m.

Type: Ship (hazmat cat B). MMSI: 271000251.

Date/timePositionNaut miles runAvg speedWind from/ knotsBaromVisibWave heightAir tempDewpointWater temp
2014-Oct-01 08:06N 40°58' E 028°53'3 5.0
2014-Oct-01 07:33N 40°56' E 028°56'7 7.5
2014-Oct-01 06:33N 40°51' E 029°04'4 4.3
2014-Oct-01 05:32N 40°50' E 029°09'5 5.2
2014-Oct-01 04:32N 40°51' E 029°16'1 0.8
2014-Oct-01 03:29N 40°50' E 029°16'0 0.0
2014-Oct-01 02:29N 40°50' E 029°16'0 0.0
2014-Oct-01 01:23N 40°50' E 029°16'0 0.0
2014-Oct-01 00:29N 40°50' E 029°16'0 0.0
2014-Sep-30 23:23N 40°50' E 029°16'0 0.0
2014-Sep-30 22:29N 40°50' E 029°16'0 0.0
2014-Sep-30 21:29N 40°50' E 029°16'0 0.0
2014-Sep-30 20:29N 40°50' E 029°16'0 0.0
2014-Sep-30 19:29N 40°50' E 029°16'0 0.0
2014-Sep-30 18:29N 40°50' E 029°16'0 0.0
2014-Sep-30 17:29N 40°50' E 029°16'0 0.0
2014-Sep-30 16:29N 40°50' E 029°16'0 0.0
2014-Sep-30 15:29N 40°50' E 029°16'0 0.0
2014-Sep-30 14:29N 40°50' E 029°16'0 0.0
2014-Sep-30 13:29N 40°50' E 029°16'0 0.0
2014-Sep-30 12:29N 40°50' E 029°16'0 0.0
2014-Sep-30 11:17N 40°50' E 029°16'0 0.0
2014-Sep-30 10:23N 40°50' E 029°16'0 0.0
2014-Sep-30 09:29N 40°50' E 029°16'0 0.0
2014-Sep-30 08:29N 40°50' E 029°16'0 0.0
2014-Sep-30 07:23N 40°50' E 029°16'0 0.0
2014-Sep-30 06:29N 40°50' E 029°16'0 0.0
2014-Sep-30 05:29N 40°50' E 029°16'0 0.0
2014-Sep-30 04:23N 40°50' E 029°16'0 0.0
2014-Sep-30 03:23N 40°50' E 029°16'0 0.0
2014-Sep-30 02:23N 40°50' E 029°16'0 0.0
2014-Sep-30 01:29N 40°50' E 029°16'0 0.0
2014-Sep-30 00:29N 40°50' E 029°16'0 0.0
2014-Sep-29 23:29N 40°50' E 029°16'0 0.0
2014-Sep-29 22:29N 40°50' E 029°16'0 0.0
2014-Sep-29 21:23N 40°50' E 029°16'0 0.0
2014-Sep-29 20:29N 40°50' E 029°16'0 0.0
2014-Sep-29 19:29N 40°50' E 029°16'0 0.0
2014-Sep-29 18:29N 40°50' E 029°16'0 0.0
2014-Sep-29 17:29N 40°50' E 029°16'0 0.0
2014-Sep-29 16:29N 40°50' E 029°16'0 0.0
2014-Sep-29 15:29N 40°50' E 029°16'0 0.0
2014-Sep-29 14:29N 40°50' E 029°16'0 0.0
2014-Sep-29 13:29N 40°50' E 029°16'0 0.0
2014-Sep-29 12:23N 40°50' E 029°16'0 0.0
2014-Sep-29 11:29N 40°50' E 029°16'0 0.0
2014-Sep-29 10:11N 40°50' E 029°16'0 0.0
2014-Sep-29 09:25N 40°50' E 029°16'0 0.0
2014-Sep-29 08:31N 40°50' E 029°16'0 0.0
2014-Sep-29 07:31N 40°50' E 029°16'0 0.0
2014-Sep-29 06:31N 40°50' E 029°16'0 0.0
2014-Sep-29 05:28N 40°50' E 029°16'0 0.0
2014-Sep-29 04:16N 40°50' E 029°16'0 0.0
2014-Sep-29 03:19N 40°50' E 029°16'0 0.0
2014-Sep-29 02:13N 40°50' E 029°16'0 0.0
2014-Sep-29 01:31N 40°50' E 029°16'0 0.0
2014-Sep-29 00:31N 40°50' E 029°16'0 0.0
2014-Sep-28 23:13N 40°50' E 029°16'0 0.0
2014-Sep-28 22:19N 40°50' E 029°16'0 0.0
2014-Sep-28 21:31N 40°50' E 029°16'0 0.0
2014-Sep-28 20:31N 40°50' E 029°16'0 0.0
2014-Sep-28 19:31N 40°50' E 029°16'0 0.0
2014-Sep-28 18:07N 40°50' E 029°16'0 0.0
2014-Sep-28 17:25N 40°50' E 029°16'0 0.0
2014-Sep-28 16:31N 40°50' E 029°16'0 0.0
2014-Sep-28 15:25N 40°50' E 029°16'0 0.0
2014-Sep-28 14:31N 40°50' E 029°16'0 0.0
2014-Sep-28 13:31N 40°50' E 029°16'0 0.0
2014-Sep-28 12:28N 40°50' E 029°16'0 0.0
2014-Sep-28 11:10N 40°50' E 029°16'0 0.0
2014-Sep-28 10:28N 40°50' E 029°16'0 0.0
2014-Sep-28 09:28N 40°50' E 029°16'0 0.0
2014-Sep-27 11:22N 40°50' E 029°16'0 0.0
2014-Sep-27 10:28N 40°50' E 029°16'0 0.0
2014-Sep-27 09:22N 40°50' E 029°16'0 0.0
2014-Sep-27 08:28N 40°50' E 029°16'0 0.0
2014-Sep-27 07:16N 40°50' E 029°16'0 0.0
2014-Sep-27 06:22N 40°50' E 029°16'0 0.0
2014-Sep-27 05:16N 40°50' E 029°16'0 0.0
2014-Sep-27 04:22N 40°50' E 029°16'0 0.0
2014-Sep-27 03:28N 40°50' E 029°16'0 0.0
2014-Sep-27 02:28N 40°50' E 029°16'0 0.0
2014-Sep-27 01:28N 40°50' E 029°16'0 0.0
2014-Sep-27 00:16N 40°50' E 029°16'0 0.0
2014-Sep-26 23:28N 40°50' E 029°16'0 0.0
2014-Sep-26 22:22N 40°50' E 029°16'0 0.0
2014-Sep-26 21:28N 40°50' E 029°16'0 0.0
2014-Sep-26 20:28N 40°50' E 029°16'0 0.0
2014-Sep-26 19:28N 40°50' E 029°16'0 0.0
2014-Sep-26 17:28N 40°50' E 029°16'0 0.0
2014-Sep-26 16:16N 40°50' E 029°16'0 0.0
2014-Sep-26 15:28N 40°50' E 029°16'0 0.0
2014-Sep-26 14:28N 40°50' E 029°16'0 0.0
2014-Sep-26 13:28N 40°50' E 029°16'0 0.0
2014-Sep-26 12:28N 40°50' E 029°16'0 0.0
2014-Sep-26 11:22N 40°50' E 029°16'0 0.0
2014-Sep-26 10:28N 40°50' E 029°16'0 0.0
2014-Sep-26 09:22N 40°50' E 029°16'0 0.0
2014-Sep-26 08:22N 40°50' E 029°16'0 0.0
2014-Sep-26 07:16N 40°50' E 029°16'0 0.0
2014-Sep-26 06:28N 40°50' E 029°16'0 0.0
2014-Sep-26 05:22N 40°50' E 029°16'0 0.0
2014-Sep-26 04:28N 40°50' E 029°16'0 0.0
2014-Sep-26 03:22N 40°50' E 029°16'0 0.0
2014-Sep-26 02:28N 40°50' E 029°16'0 0.0
2014-Sep-26 01:28N 40°50' E 029°16'0 0.0
2014-Sep-26 00:28N 40°50' E 029°16'0 0.0
2014-Sep-25 23:22N 40°50' E 029°16'0 0.0
2014-Sep-25 22:28N 40°50' E 029°16'0 0.0
2014-Sep-25 21:28N 40°50' E 029°16'0 0.0
2014-Sep-25 20:28N 40°50' E 029°16'0 0.0
2014-Sep-25 19:16N 40°50' E 029°16'0 0.0
2014-Sep-25 18:28N 40°50' E 029°16'0 0.0
2014-Sep-25 17:28N 40°50' E 029°16'0 0.0
2014-Sep-25 16:28N 40°50' E 029°16'0 0.0
2014-Sep-25 15:28N 40°50' E 029°16'0 0.0
2014-Sep-25 13:28N 40°50' E 029°16'0 0.0
2014-Sep-25 12:28N 40°50' E 029°16'0 0.0
2014-Sep-25 11:22N 40°50' E 029°16'0 0.0
2014-Sep-25 10:16N 40°50' E 029°16'0 0.0
2014-Sep-25 09:28N 40°50' E 029°16'0 0.0
2014-Sep-25 08:28N 40°50' E 029°16'0 0.0
2014-Sep-25 07:28N 40°50' E 029°16'0 0.0
2014-Sep-25 05:16N 40°50' E 029°16'0 0.0
2014-Sep-25 04:28N 40°50' E 029°16'0 0.0
2014-Sep-25 03:28N 40°50' E 029°16'0 0.0
2014-Sep-25 02:16N 40°50' E 029°16'0 0.0
2014-Sep-25 01:22N 40°50' E 029°16'0 0.0
2014-Sep-25 00:28N 40°50' E 029°16'0 0.0
2014-Sep-24 23:28N 40°50' E 029°16'0 0.0
2014-Sep-24 22:22N 40°50' E 029°16'0 0.0
2014-Sep-24 21:22N 40°50' E 029°16'0 0.0
2014-Sep-24 20:22N 40°50' E 029°16'0 0.0
2014-Sep-24 18:31N 40°50' E 029°16'0 0.0
2014-Sep-24 17:25N 40°50' E 029°16'0 0.0
2014-Sep-24 16:31N 40°50' E 029°16'0 0.0
2014-Sep-24 15:31N 40°50' E 029°16'0 0.0
2014-Sep-24 14:31N 40°50' E 029°16'0 0.0
2014-Sep-24 13:13N 40°50' E 029°16'0 0.0
2014-Sep-24 12:31N 40°50' E 029°16'0 0.0
2014-Sep-24 11:31N 40°50' E 029°16'0 0.0
2014-Sep-24 10:31N 40°50' E 029°16'0 0.0
2014-Sep-24 09:31N 40°50' E 029°16'0 0.0
2014-Sep-24 08:31N 40°50' E 029°16'0 0.0
2014-Sep-24 07:31N 40°50' E 029°16'0 0.0
2014-Sep-24 06:31N 40°50' E 029°16'0 0.0
2014-Sep-24 05:31N 40°50' E 029°16'0 0.0
2014-Sep-24 04:31N 40°50' E 029°16'0 0.0
2014-Sep-24 03:31N 40°50' E 029°16'0 0.0
2014-Sep-24 02:31N 40°50' E 029°16'0 0.0
2014-Sep-24 01:31N 40°50' E 029°16'0 0.0
2014-Sep-24 00:31N 40°50' E 029°16'0 0.0
2014-Sep-23 23:31N 40°50' E 029°16'0 0.0
2014-Sep-23 22:31N 40°50' E 029°16'0 0.0
2014-Sep-23 20:19N 40°50' E 029°16'0 0.0
2014-Sep-23 19:31N 40°50' E 029°16'0 0.0
2014-Sep-23 18:31N 40°50' E 029°16'0 0.0
2014-Sep-23 17:25N 40°50' E 029°16'0 0.0
2014-Sep-23 16:13N 40°50' E 029°16'0 0.0
2014-Sep-23 15:31N 40°50' E 029°16'0 0.0
2014-Sep-23 14:13N 40°50' E 029°16'0 0.0
2014-Sep-23 13:19N 40°50' E 029°16'0 0.0
2014-Sep-23 12:31N 40°50' E 029°16'0 0.0
2014-Sep-23 11:31N 40°50' E 029°16'0 0.0
2014-Sep-23 10:31N 40°50' E 029°16'0 0.0
2014-Sep-23 09:19N 40°50' E 029°16'0 0.0
2014-Sep-23 08:31N 40°50' E 029°16'0 0.0
2014-Sep-23 07:25N 40°50' E 029°16'0 0.0
2014-Sep-23 06:25N 40°50' E 029°16'0 0.0
2014-Sep-23 05:31N 40°50' E 029°16'0 0.0
2014-Sep-23 04:31N 40°50' E 029°16'0 0.0
2014-Sep-23 03:31N 40°50' E 029°16'0 0.0
2014-Sep-23 02:31N 40°50' E 029°16'0 0.0
2014-Sep-23 01:31N 40°50' E 029°16'0 0.0
2014-Sep-23 00:31N 40°50' E 029°16'0 0.0
2014-Sep-22 23:31N 40°50' E 029°16'0 0.0
2014-Sep-22 22:25N 40°50' E 029°16'0 0.0
2014-Sep-22 21:31N 40°50' E 029°16'0 0.0
2014-Sep-22 20:31N 40°50' E 029°16'0 0.0
2014-Sep-22 19:31N 40°50' E 029°16'0 0.0
2014-Sep-22 18:31N 40°50' E 029°16'0 0.0
2014-Sep-22 17:31N 40°50' E 029°16'0 0.0
2014-Sep-22 16:25N 40°50' E 029°16'0 0.0
2014-Sep-22 15:31N 40°50' E 029°16'0 0.0
2014-Sep-22 14:13N 40°50' E 029°16'0 0.0
2014-Sep-22 13:31N 40°50' E 029°16'0 0.0
2014-Sep-22 12:31N 40°50' E 029°16'0 0.0
2014-Sep-22 11:31N 40°50' E 029°16'0 0.0
2014-Sep-22 10:25N 40°50' E 029°16'0 0.0
2014-Sep-22 09:13N 40°50' E 029°16'0 0.0
2014-Sep-22 08:31N 40°50' E 029°16'0 0.0
2014-Sep-22 07:31N 40°50' E 029°16'0 0.0
2014-Sep-22 06:31N 40°50' E 029°16'0 0.0
2014-Sep-22 05:31N 40°50' E 029°16'0 0.0
2014-Sep-22 04:25N 40°50' E 029°16'0 0.0
2014-Sep-22 03:31N 40°50' E 029°16'0 0.0
2014-Sep-22 02:31N 40°50' E 029°16'0 0.0
2014-Sep-22 01:31N 40°50' E 029°16'0 0.0
2014-Sep-22 00:07N 40°50' E 029°16'0 0.0
2014-Sep-21 23:31N 40°50' E 029°16'0 0.0
2014-Sep-21 22:19N 40°50' E 029°16'0 0.0
2014-Sep-21 21:31N 40°50' E 029°16'0 0.0
2014-Sep-21 20:25N 40°50' E 029°16'0 0.0
2014-Sep-21 19:25N 40°50' E 029°16'0 0.0
2014-Sep-21 18:31N 40°50' E 029°16'0 0.0
2014-Sep-21 17:31N 40°50' E 029°16'0 0.0
2014-Sep-21 16:31N 40°50' E 029°16'0 0.0
2014-Sep-21 15:31N 40°50' E 029°16'0 0.0
2014-Sep-21 14:31N 40°50' E 029°16'0 0.0
2014-Sep-21 13:31N 40°50' E 029°16'0 0.0
2014-Sep-21 12:25N 40°50' E 029°16'0 0.0
2014-Sep-21 11:31N 40°50' E 029°16'0 0.0
2014-Sep-21 10:31N 40°50' E 029°16'0 0.0
2014-Sep-21 09:19N 40°50' E 029°16'0 0.0
2014-Sep-21 08:31N 40°50' E 029°16'  

Dump ship's entire track history